Time;durP1;ratioP1;P1;durP2;ratioP2;P2;SDS_P1;SDS_P2;PMS_P1;PMS_P2;Temp;Humidity;BMP_temperature;BMP_pressure;BME280_temperature;BME280_humidity;BME280_pressure;Samples;Min_cycle;Max_cycle;Signal;HPM_P1;HPM_P2
2022/06/10 00:00:22;;;;;;;3.33;2.20;;;18.80;92.10;;;;;;5074438;28;20441;-45
2022/06/10 00:02:50;;;;;;;3.10;2.40;;;18.90;92.20;;;;;;5074937;28;20430;-43
2022/06/10 00:05:20;;;;;;;3.23;2.90;;;18.60;92.10;;;;;;5075017;28;20536;-44
2022/06/10 00:07:46;;;;;;;3.80;2.67;;;18.60;91.90;;;;;;5074757;28;20468;-42
2022/06/10 00:10:16;;;;;;;2.60;2.40;;;18.60;92.00;;;;;;5074862;28;20438;-41
2022/06/10 00:12:43;;;;;;;2.97;2.70;;;18.60;92.10;;;;;;5074885;28;20515;-42
2022/06/10 00:15:11;;;;;;;4.00;2.50;;;18.60;92.10;;;;;;5074875;28;20472;-43
2022/06/10 00:17:37;;;;;;;3.37;2.70;;;18.50;92.20;;;;;;5074977;28;20433;-42
2022/06/10 00:20:05;;;;;;;4.00;2.50;;;18.50;92.20;;;;;;5074457;28;20433;-44
2022/06/10 00:22:32;;;;;;;2.60;2.40;;;18.40;92.30;;;;;;5074773;28;20785;-43
2022/06/10 00:24:59;;;;;;;2.67;2.40;;;18.40;92.30;;;;;;5074447;28;20452;-45
2022/06/10 00:27:27;;;;;;;4.70;2.47;;;18.50;92.40;;;;;;5074435;28;20434;-42
2022/06/10 00:29:54;;;;;;;4.33;2.50;;;18.30;92.40;;;;;;5072991;28;20802;-43
2022/06/10 00:32:20;;;;;;;3.17;2.87;;;18.20;92.30;;;;;;5074398;28;20512;-43
2022/06/10 00:34:47;;;;;;;3.90;2.60;;;18.30;92.40;;;;;;5077113;22;20525;-47
2022/06/10 00:37:13;;;;;;;3.10;2.33;;;18.20;92.50;;;;;;5033395;28;20935;-47
2022/06/10 00:39:40;;;;;;;5.80;2.63;;;18.10;92.80;;;;;;5033290;28;20446;-47
2022/06/10 00:42:08;;;;;;;2.37;1.90;;;18.10;92.50;;;;;;5015883;28;20434;-47
2022/06/10 00:44:43;;;;;;;2.60;2.40;;;18.10;92.60;;;;;;5033477;28;20465;-47
2022/06/10 00:47:17;;;;;;;2.93;2.63;;;18.00;92.50;;;;;;5033500;28;20436;-48
2022/06/10 00:49:48;;;;;;;2.73;2.53;;;18.00;92.70;;;;;;5033120;28;20899;-48
2022/06/10 00:52:22;;;;;;;3.23;2.43;;;18.10;92.70;;;;;;5033499;28;20478;-48
2022/06/10 00:54:52;;;;;;;3.30;2.07;;;18.00;92.70;;;;;;5033423;28;20458;-48
2022/06/10 00:57:22;;;;;;;3.70;2.47;;;17.90;92.70;;;;;;5033318;28;20441;-48
2022/06/10 00:59:55;;;;;;;4.63;2.13;;;17.90;92.80;;;;;;5032884;28;20437;-47
2022/06/10 01:02:24;;;;;;;2.47;2.03;;;17.90;93.00;;;;;;5033481;28;20438;-48
2022/06/10 01:04:53;;;;;;;2.80;2.50;;;17.60;92.90;;;;;;5033412;28;20457;-48
2022/06/10 01:07:26;;;;;;;2.40;2.20;;;17.70;93.10;;;;;;5033154;28;20438;-48
2022/06/10 01:09:53;;;;;;;2.63;2.40;;;17.70;93.20;;;;;;5032951;28;20480;-49
2022/06/10 01:12:36;;;;;;;2.67;2.10;;;18.00;93.40;;;;;;5015300;28;20505;-48
2022/06/10 01:15:30;;;;;;;3.30;2.60;;;18.00;93.50;;;;;;5033143;28;20473;-48
2022/06/10 01:18:22;;;;;;;2.50;2.30;;;17.70;93.50;;;;;;5032309;28;20451;-48
2022/06/10 01:21:00;;;;;;;2.63;2.43;;;17.40;93.40;;;;;;5032704;28;20497;-48
2022/06/10 01:24:15;;;;;;;2.80;2.50;;;17.60;93.70;;;;;;5032862;28;20975;-48
2022/06/10 01:30:29;;;;;;;2.67;2.40;;;17.50;93.70;;;;;;5032455;28;20432;-47
2022/06/10 01:33:13;;;;;;;2.93;2.50;;;17.50;93.90;;;;;;5032645;28;20479;-48
2022/06/10 01:35:45;;;;;;;3.67;2.60;;;17.40;94.00;;;;;;5032569;28;20474;-48
2022/06/10 01:38:17;;;;;;;3.87;3.20;;;17.40;94.00;;;;;;5032628;28;20433;-47
2022/06/10 01:40:52;;;;;;;2.77;2.53;;;17.00;93.90;;;;;;5032409;28;20429;-47
2022/06/10 01:43:29;;;;;;;3.07;2.77;;;17.40;94.20;;;;;;5032726;28;20428;-47
2022/06/10 01:46:03;;;;;;;4.17;3.13;;;17.40;94.30;;;;;;5032426;28;20451;-48
2022/06/10 01:48:37;;;;;;;5.20;3.60;;;17.30;94.40;;;;;;5032151;28;20439;-47
2022/06/10 01:51:09;;;;;;;5.23;3.50;;;17.30;94.40;;;;;;5032444;28;20522;-48
2022/06/10 01:53:42;;;;;;;4.10;3.10;;;17.20;94.50;;;;;;5032108;28;20489;-48
2022/06/10 01:56:12;;;;;;;4.60;3.80;;;17.20;94.60;;;;;;5032558;28;20438;-48
2022/06/10 01:58:43;;;;;;;4.63;3.53;;;17.20;94.80;;;;;;5032101;28;20442;-55
2022/06/10 02:01:13;;;;;;;7.50;3.30;;;17.30;94.90;;;;;;5031885;28;20431;-48
2022/06/10 02:03:46;;;;;;;6.43;3.77;;;17.20;95.00;;;;;;5032598;28;20461;-48
2022/06/10 02:06:17;;;;;;;7.43;4.00;;;17.20;95.10;;;;;;5032822;28;20438;-49
2022/06/10 02:08:48;;;;;;;4.70;3.63;;;17.10;95.10;;;;;;5032324;28;20449;-48
2022/06/10 02:11:18;;;;;;;4.30;3.80;;;16.90;95.20;;;;;;5032432;28;20435;-48
2022/06/10 02:13:57;;;;;;;4.93;4.10;;;17.30;95.40;;;;;;5032348;28;20492;-48
2022/06/10 02:16:27;;;;;;;4.10;3.60;;;17.10;95.30;;;;;;5032421;28;20434;-48
2022/06/10 02:18:58;;;;;;;7.57;4.40;;;16.60;95.30;;;;;;5031430;28;20973;-48
2022/06/10 02:21:30;;;;;;;3.90;3.47;;;17.00;95.60;;;;;;5031676;28;20466;-47
2022/06/10 02:24:00;;;;;;;5.60;4.23;;;16.90;95.70;;;;;;5031617;28;20461;-47
2022/06/10 02:26:28;;;;;;;6.10;3.90;;;17.00;95.80;;;;;;5031720;28;20425;-47
2022/06/10 02:28:58;;;;;;;7.93;4.10;;;16.90;96.00;;;;;;5031146;28;20791;-47
2022/06/10 02:31:29;;;;;;;4.40;3.80;;;16.70;96.00;;;;;;5031475;28;20442;-47
2022/06/10 02:33:57;;;;;;;6.00;4.10;;;16.80;96.30;;;;;;5031406;28;20496;-47
2022/06/10 02:36:30;;;;;;;5.83;4.10;;;16.70;96.50;;;;;;5031532;28;20440;-47
2022/06/10 02:39:04;;;;;;;4.63;3.50;;;16.80;96.80;;;;;;5031627;28;20459;-47
2022/06/10 02:41:37;;;;;;;5.70;3.87;;;16.70;96.70;;;;;;5031575;28;20947;-47
2022/06/10 02:44:12;;;;;;;5.10;3.77;;;16.80;96.90;;;;;;5031810;28;20448;-46
2022/06/10 02:46:48;;;;;;;4.83;3.77;;;16.60;96.90;;;;;;5032098;28;20991;-47
2022/06/10 02:49:18;;;;;;;4.10;3.70;;;16.60;96.90;;;;;;5031760;28;20444;-47
2022/06/10 02:51:47;;;;;;;4.80;4.07;;;16.60;97.20;;;;;;5032674;28;20458;-47
2022/06/10 02:54:24;;;;;;;8.27;4.67;;;16.60;97.30;;;;;;5032031;28;20492;-47
2022/06/10 02:56:51;;;;;;;7.20;4.27;;;16.60;97.40;;;;;;5032515;28;20510;-47
2022/06/10 03:02:20;;;;;;;4.97;3.93;;;16.50;97.50;;;;;;5033545;28;20479;-47
2022/06/10 03:05:02;;;;;;;9.83;5.70;;;16.60;97.70;;;;;;5032671;28;20468;-47
2022/06/10 03:07:46;;;;;;;7.77;4.80;;;16.40;97.70;;;;;;5015672;28;20467;-47
2022/06/10 03:10:26;;;;;;;8.87;5.90;;;16.60;97.80;;;;;;5033141;28;20451;-47
2022/06/10 03:13:09;;;;;;;6.90;5.67;;;16.50;97.80;;;;;;5034009;28;20479;-47
2022/06/10 03:15:53;;;;;;;12.80;6.07;;;16.50;98.10;;;;;;5037655;28;20455;-47
2022/06/10 03:18:30;;;;;;;9.13;6.60;;;16.60;98.10;;;;;;5036865;28;20531;-48
2022/06/10 03:21:04;;;;;;;10.33;7.13;;;16.50;98.10;;;;;;5037143;28;20435;-47
2022/06/10 03:23:38;;;;;;;8.17;5.40;;;16.80;98.30;;;;;;5035549;28;20430;-48
2022/06/10 03:26:10;;;;;;;9.60;5.20;;;16.40;98.10;;;;;;5035336;28;20751;-48
2022/06/10 03:28:43;;;;;;;7.73;5.60;;;16.50;98.30;;;;;;5034929;28;20451;-48
2022/06/10 03:31:14;;;;;;;6.17;4.73;;;16.50;98.30;;;;;;5035113;28;20440;-47
2022/06/10 03:33:45;;;;;;;7.30;5.03;;;16.40;98.40;;;;;;5034756;28;20479;-47
2022/06/10 03:36:16;;;;;;;13.17;5.87;;;16.50;98.40;;;;;;5034920;28;20421;-47
2022/06/10 03:38:46;;;;;;;8.30;5.67;;;16.50;98.50;;;;;;5034474;28;20527;-48
2022/06/10 03:41:20;;;;;;;6.37;4.83;;;16.40;98.50;;;;;;5034723;28;20433;-47
2022/06/10 03:43:47;;;;;;;10.00;4.67;;;16.50;98.60;;;;;;5034455;28;20431;-48
2022/06/10 03:46:16;;;;;;;8.70;5.57;;;16.50;98.70;;;;;;5034473;28;20522;-48
2022/06/10 03:48:46;;;;;;;7.93;4.87;;;16.50;98.70;;;;;;5034132;28;20458;-48
2022/06/10 03:51:16;;;;;;;6.33;4.50;;;16.50;98.80;;;;;;5034663;28;20440;-47
2022/06/10 03:53:43;;;;;;;13.13;5.40;;;16.90;99.10;;;;;;5034599;28;20567;-49
2022/06/10 03:56:10;;;;;;;13.43;6.27;;;16.60;98.90;;;;;;5034458;28;20431;-48
2022/06/10 03:58:37;;;;;;;9.90;6.07;;;16.80;99.10;;;;;;5034224;28;20446;-48
2022/06/10 04:01:04;;;;;;;6.77;4.67;;;16.70;99.00;;;;;;5034231;28;20433;-47
2022/06/10 04:03:30;;;;;;;8.07;5.40;;;16.70;99.10;;;;;;5034544;28;20855;-47
2022/06/10 04:05:57;;;;;;;8.80;5.37;;;16.80;99.10;;;;;;5034422;28;20914;-49
2022/06/10 04:08:25;;;;;;;12.37;5.20;;;16.90;99.10;;;;;;5034316;28;20440;-48
2022/06/10 04:10:52;;;;;;;7.27;4.67;;;17.00;99.00;;;;;;5034132;28;20452;-47
2022/06/10 04:13:20;;;;;;;9.63;5.30;;;17.30;99.10;;;;;;5034870;28;20474;-47
2022/06/10 04:15:47;;;;;;;6.63;4.57;;;17.30;98.90;;;;;;5034495;28;20448;-47
2022/06/10 04:18:13;;;;;;;5.60;3.93;;;17.30;98.70;;;;;;5035240;28;20443;-47
2022/06/10 04:20:41;;;;;;;7.80;5.20;;;17.70;98.80;;;;;;5034018;28;20514;-47
2022/06/10 04:23:08;;;;;;;7.80;4.80;;;17.50;98.40;;;;;;5033923;28;20435;-48
2022/06/10 04:25:38;;;;;;;8.27;5.17;;;17.60;98.20;;;;;;5033982;28;20977;-47
2022/06/10 04:28:06;;;;;;;6.20;4.53;;;17.40;97.90;;;;;;5033699;28;20446;-48
2022/06/10 04:30:35;;;;;;;5.80;5.27;;;17.80;98.00;;;;;;5033959;28;20537;-47
2022/06/10 04:33:03;;;;;;;7.50;4.50;;;17.80;97.80;;;;;;5033583;28;20476;-48
2022/06/10 04:35:31;;;;;;;7.07;4.77;;;17.90;97.70;;;;;;5033947;28;20473;-47
2022/06/10 04:37:59;;;;;;;9.47;5.23;;;18.00;97.50;;;;;;5034081;28;20437;-48
2022/06/10 04:40:27;;;;;;;9.10;5.87;;;18.20;97.40;;;;;;5033808;28;20433;-48
2022/06/10 04:42:56;;;;;;;7.43;5.40;;;17.80;97.10;;;;;;5034335;28;20442;-48
2022/06/10 04:45:28;;;;;;;8.33;6.00;;;18.20;97.30;;;;;;5033604;28;20768;-48
2022/06/10 04:47:55;;;;;;;9.67;6.10;;;18.30;97.20;;;;;;5033945;28;20534;-49
2022/06/10 04:50:24;;;;;;;7.70;5.20;;;17.70;96.80;;;;;;5033374;28;20491;-48
2022/06/10 04:52:51;;;;;;;5.80;4.90;;;18.30;96.80;;;;;;5033248;28;20473;-48
2022/06/10 04:55:19;;;;;;;10.73;4.83;;;18.30;96.70;;;;;;5033624;28;20812;-48
2022/06/10 04:57:45;;;;;;;4.80;4.20;;;18.30;96.70;;;;;;5033559;28;20437;-47
2022/06/10 05:00:18;;;;;;;12.60;5.13;;;18.20;96.40;;;;;;5033152;28;20533;-48
2022/06/10 05:02:45;;;;;;;9.50;5.43;;;18.40;96.30;;;;;;5034265;28;20425;-48
2022/06/10 05:05:12;;;;;;;8.10;5.60;;;18.40;96.20;;;;;;5033455;28;20540;-46
2022/06/10 05:07:38;;;;;;;6.73;4.80;;;18.50;96.10;;;;;;5034376;28;20457;-47
2022/06/10 05:10:06;;;;;;;5.50;4.37;;;18.80;96.20;;;;;;5015057;28;20526;-48
2022/06/10 05:12:34;;;;;;;6.10;4.40;;;18.50;95.80;;;;;;5033023;28;20525;-47
2022/06/10 05:15:01;;;;;;;16.57;5.30;;;18.90;95.70;;;;;;5032954;28;20499;-49
2022/06/10 05:17:29;;;;;;;7.97;4.90;;;18.80;95.40;;;;;;5033057;28;20557;-47
2022/06/10 05:19:55;;;;;;;9.77;5.43;;;19.00;95.20;;;;;;5033110;28;20439;-47
2022/06/10 05:22:22;;;;;;;8.30;3.93;;;18.80;94.70;;;;;;5032782;28;20442;-48
2022/06/10 05:24:49;;;;;;;7.10;4.97;;;18.90;94.50;;;;;;5032472;28;20587;-49
2022/06/10 05:27:16;;;;;;;7.83;4.53;;;19.10;94.50;;;;;;5032679;28;20450;-49
2022/06/10 05:29:42;;;;;;;8.37;5.43;;;19.20;94.10;;;;;;5032194;28;20443;-48
2022/06/10 05:32:09;;;;;;;5.33;3.70;;;19.30;94.10;;;;;;5032996;28;20434;-48
2022/06/10 05:34:46;;;;;;;6.80;4.20;;;19.30;93.80;;;;;;5032519;28;20483;-48
2022/06/10 05:37:14;;;;;;;6.67;3.20;;;19.20;93.60;;;;;;5032122;28;20454;-48
2022/06/10 05:39:41;;;;;;;5.90;3.40;;;19.40;93.50;;;;;;5032815;28;20446;-48
2022/06/10 05:42:09;;;;;;;4.77;3.80;;;19.30;93.20;;;;;;5031984;28;20431;-48
2022/06/10 05:44:39;;;;;;;8.17;4.03;;;19.70;93.30;;;;;;5032239;28;20448;-47
2022/06/10 05:47:07;;;;;;;10.90;3.47;;;19.60;93.10;;;;;;5032393;28;20431;-47
2022/06/10 05:49:35;;;;;;;8.10;3.40;;;19.70;92.80;;;;;;5032036;28;20435;-48
2022/06/10 05:52:06;;;;;;;7.67;4.27;;;19.80;92.50;;;;;;5031231;28;20489;-48
2022/06/10 05:54:33;;;;;;;11.13;3.37;;;19.90;92.30;;;;;;5032728;28;20551;-48
2022/06/10 05:56:59;;;;;;;5.57;3.17;;;19.90;92.00;;;;;;5032682;28;20865;-49
2022/06/10 05:59:29;;;;;;;5.70;2.87;;;19.90;91.60;;;;;;5031660;28;20435;-48
2022/06/10 06:01:56;;;;;;;5.47;3.13;;;19.90;91.30;;;;;;5032190;28;20436;-48
2022/06/10 06:04:23;;;;;;;7.90;3.40;;;19.90;91.30;;;;;;5031896;28;20449;-48
2022/06/10 06:06:49;;;;;;;10.40;4.10;;;19.90;91.20;;;;;;5032103;28;20454;-48
2022/06/10 06:09:18;;;;;;;8.97;3.03;;;20.00;91.30;;;;;;5014044;28;20466;-48
2022/06/10 06:11:46;;;;;;;7.80;3.50;;;19.80;91.00;;;;;;5032832;28;20436;-48
2022/06/10 06:14:12;;;;;;;10.63;4.60;;;20.30;90.90;;;;;;5031628;28;20493;-48
2022/06/10 06:16:40;;;;;;;7.83;2.70;;;20.20;90.50;;;;;;5031770;28;20432;-49
2022/06/10 06:19:07;;;;;;;9.53;2.53;;;20.00;90.30;;;;;;5031743;28;20475;-48
2022/06/10 06:21:33;;;;;;;13.37;4.20;;;20.50;90.20;;;;;;5032154;28;20491;-49
2022/06/10 06:24:01;;;;;;;17.10;3.00;;;20.60;90.00;;;;;;5031599;28;20475;-49
2022/06/10 06:26:29;;;;;;;5.70;2.33;;;20.70;89.60;;;;;;5031732;28;20810;-48
2022/06/10 06:28:56;;;;;;;7.60;2.23;;;20.50;89.50;;;;;;5031440;28;20441;-49
2022/06/10 06:31:22;;;;;;;6.20;2.73;;;20.40;88.80;;;;;;5032513;28;20459;-49
2022/06/10 06:33:49;;;;;;;6.60;2.20;;;20.50;88.70;;;;;;5032531;28;20552;-48
2022/06/10 06:36:23;;;;;;;4.17;1.87;;;20.30;88.20;;;;;;5062410;22;21005;-53
2022/06/10 06:38:50;;;;;;;6.33;2.30;;;20.60;88.30;;;;;;5051215;28;20435;-51
2022/06/10 06:41:18;;;;;;;3.20;1.40;;;20.60;88.20;;;;;;5051425;28;20449;-51
2022/06/10 06:43:46;;;;;;;5.40;2.03;;;20.20;86.60;;;;;;5051351;28;20429;-51
2022/06/10 06:46:15;;;;;;;4.10;2.10;;;20.80;87.90;;;;;;5050979;28;20453;-51
2022/06/10 06:48:43;;;;;;;5.90;1.80;;;20.50;87.40;;;;;;5050555;28;20529;-51
2022/06/10 06:51:10;;;;;;;5.60;1.50;;;20.70;87.10;;;;;;5050873;28;20436;-51
2022/06/10 06:53:36;;;;;;;5.03;2.30;;;20.50;87.10;;;;;;5050299;28;20442;-51
2022/06/10 06:56:05;;;;;;;5.37;2.67;;;20.80;87.90;;;;;;5032359;28;20464;-52
2022/06/10 06:58:32;;;;;;;7.80;2.13;;;20.80;87.80;;;;;;5032715;28;20452;-51
2022/06/10 07:01:01;;;;;;;5.80;2.40;;;20.80;87.90;;;;;;5050839;28;20440;-52
2022/06/10 07:03:28;;;;;;;4.40;2.30;;;20.80;87.10;;;;;;5051225;28;20436;-51
2022/06/10 07:05:54;;;;;;;3.60;1.43;;;20.80;86.90;;;;;;5033071;28;20843;-51
2022/06/10 07:08:21;;;;;;;4.10;1.90;;;20.90;86.70;;;;;;5051173;28;20460;-52
2022/06/10 07:10:48;;;;;;;5.17;2.10;;;20.90;86.30;;;;;;5050834;28;20441;-52
2022/06/10 07:13:15;;;;;;;2.87;1.60;;;21.00;86.00;;;;;;5050662;28;20984;-51
2022/06/10 07:15:43;;;;;;;5.43;1.90;;;21.10;86.00;;;;;;5050888;28;20494;-52
2022/06/10 07:18:11;;;;;;;8.50;2.13;;;20.80;85.40;;;;;;5051140;28;20793;-52
2022/06/10 07:20:38;;;;;;;6.20;1.80;;;20.90;85.50;;;;;;5051765;28;20834;-51
2022/06/10 07:23:06;;;;;;;7.60;2.70;;;20.80;85.10;;;;;;5050557;28;20439;-51
2022/06/10 07:25:33;;;;;;;6.10;2.47;;;21.10;84.80;;;;;;5050870;28;20549;-52
2022/06/10 07:28:00;;;;;;;3.97;2.00;;;20.90;84.50;;;;;;5050574;28;20429;-52
2022/06/10 07:30:28;;;;;;;9.60;2.40;;;20.90;83.80;;;;;;5050283;28;20436;-51
2022/06/10 07:32:55;;;;;;;11.83;3.00;;;20.60;83.30;;;;;;5050529;28;20435;-52
2022/06/10 07:35:23;;;;;;;5.00;1.90;;;20.50;82.40;;;;;;5049770;28;20499;-51
2022/06/10 07:37:50;;;;;;;5.20;1.63;;;21.00;82.50;;;;;;5050850;28;20429;-52
2022/06/10 07:43:00;;;;;;;5.40;1.50;;;21.00;82.00;;;;;;5050083;28;20524;-51
2022/06/10 07:45:28;;;;;;;9.27;1.90;;;21.10;81.10;;;;;;5050536;28;20467;-51
2022/06/10 07:47:54;;;;;;;5.97;2.20;;;21.10;80.90;;;;;;5050471;28;20443;-51
2022/06/10 07:50:23;;;;;;;6.37;1.90;;;21.20;81.10;;;;;;5050219;28;21004;-51
2022/06/10 07:52:49;;;;;;;3.50;1.97;;;21.10;80.70;;;;;;5050402;28;20436;-52
2022/06/10 07:55:16;;;;;;;7.93;2.93;;;21.20;79.80;;;;;;5050402;28;20485;-52
2022/06/10 07:57:43;;;;;;;5.00;1.63;;;21.40;79.30;;;;;;5050620;28;20436;-52
2022/06/10 08:00:12;;;;;;;4.63;2.27;;;21.80;79.10;;;;;;5053185;28;20436;-51
2022/06/10 08:02:42;;;;;;;11.03;2.80;;;21.40;76.90;;;;;;5054018;28;20464;-51
2022/06/10 08:05:13;;;;;;;6.53;2.10;;;21.40;76.80;;;;;;5054271;28;20457;-51
2022/06/10 08:07:41;;;;;;;3.30;1.63;;;22.00;77.50;;;;;;5036004;28;20449;-52
2022/06/10 08:10:17;;;;;;;7.00;1.90;;;21.10;76.40;;;;;;5053639;28;20961;-51
2022/06/10 08:12:44;;;;;;;5.23;1.60;;;21.50;76.50;;;;;;5053910;28;20523;-50
2022/06/10 08:15:12;;;;;;;5.97;1.83;;;21.30;76.20;;;;;;5053700;28;20484;-51
2022/06/10 08:17:38;;;;;;;4.33;1.87;;;21.40;76.80;;;;;;5054063;28;20813;-50
2022/06/10 08:20:06;;;;;;;6.23;2.00;;;21.40;76.60;;;;;;5053782;28;20462;-51
2022/06/10 08:22:35;;;;;;;10.17;2.17;;;21.40;76.40;;;;;;5054340;28;20430;-51
2022/06/10 08:25:06;;;;;;;9.47;1.77;;;21.00;75.90;;;;;;5053870;28;20451;-51
2022/06/10 08:27:34;;;;;;;4.70;1.90;;;21.60;75.80;;;;;;5053735;28;20516;-51
2022/06/10 08:30:01;;;;;;;5.23;1.67;;;21.60;75.90;;;;;;5035422;28;20942;-52
2022/06/10 08:32:28;;;;;;;3.20;1.73;;;21.60;76.00;;;;;;5053591;28;20432;-52
2022/06/10 08:34:54;;;;;;;6.73;2.50;;;21.90;76.30;;;;;;5053439;28;20495;-51
2022/06/10 08:37:21;;;;;;;3.80;1.57;;;21.60;75.60;;;;;;5053413;28;20904;-51
2022/06/10 08:39:48;;;;;;;8.40;1.97;;;22.10;76.30;;;;;;5053504;28;20442;-52
2022/06/10 08:42:26;;;;;;;6.30;2.13;;;21.30;75.40;;;;;;5035788;28;20464;-52
2022/06/10 08:44:54;;;;;;;4.87;1.80;;;21.70;75.50;;;;;;5053792;28;20966;-51
2022/06/10 08:47:45;;;;;;;5.60;1.63;;;21.60;75.20;;;;;;5053040;28;20437;-53
2022/06/10 08:50:37;;;;;;;5.40;2.10;;;21.50;75.40;;;;;;5035428;28;20449;-52
2022/06/10 08:53:19;;;;;;;3.77;2.20;;;22.10;76.50;;;;;;5053652;28;20943;-52
2022/06/10 08:55:52;;;;;;;2.97;1.50;;;21.70;76.30;;;;;;5053396;28;20492;-52
2022/06/10 08:58:26;;;;;;;6.00;2.17;;;22.00;76.50;;;;;;5053208;28;20949;-53
2022/06/10 09:00:56;;;;;;;4.40;1.77;;;21.80;75.80;;;;;;5052285;28;20462;-51
2022/06/10 09:03:29;;;;;;;6.00;2.00;;;22.10;75.90;;;;;;5036154;28;20772;-52
2022/06/10 09:05:59;;;;;;;5.47;1.97;;;21.90;74.60;;;;;;5052679;28;20868;-52
2022/06/10 09:08:31;;;;;;;9.00;2.27;;;22.00;74.90;;;;;;5052674;28;20457;-52
2022/06/10 09:11:07;;;;;;;7.17;1.73;;;22.20;75.00;;;;;;5051842;28;20438;-51
2022/06/10 09:13:39;;;;;;;5.73;2.00;;;22.20;74.10;;;;;;5053032;28;20441;-52
2022/06/10 09:16:13;;;;;;;4.23;1.77;;;22.00;72.30;;;;;;5034941;28;20491;-52
2022/06/10 09:18:51;;;;;;;4.00;1.57;;;22.30;72.90;;;;;;5052800;28;20900;-51
2022/06/10 09:21:22;;;;;;;8.73;2.53;;;22.20;72.00;;;;;;5052674;28;20444;-52
2022/06/10 09:23:49;;;;;;;7.13;2.20;;;22.40;70.20;;;;;;5052492;28;20439;-52
2022/06/10 09:26:24;;;;;;;6.83;1.90;;;22.60;69.60;;;;;;5052422;28;20458;-52
2022/06/10 09:28:52;;;;;;;9.90;2.00;;;22.50;69.90;;;;;;5052527;28;20442;-51
2022/06/10 09:31:40;;;;;;;5.77;1.43;;;22.50;70.00;;;;;;5052505;28;20442;-51
2022/06/10 09:34:19;;;;;;;5.90;1.70;;;22.00;68.80;;;;;;5052659;28;20538;-52
2022/06/10 09:36:53;;;;;;;5.67;1.40;;;22.50;68.00;;;;;;5052605;28;20424;-51
2022/06/10 09:42:26;;;;;;;8.87;2.83;;;22.30;66.00;;;;;;5052856;28;20796;-51
2022/06/10 09:44:59;;;;;;;6.43;2.07;;;22.00;66.60;;;;;;5052633;28;20458;-51
2022/06/10 09:47:37;;;;;;;5.70;1.80;;;22.10;67.60;;;;;;5052694;28;20438;-51
2022/06/10 09:50:22;;;;;;;5.20;2.20;;;22.30;68.10;;;;;;5051982;28;20444;-50
2022/06/10 09:53:01;;;;;;;3.57;1.83;;;22.00;67.00;;;;;;5052126;28;20746;-52
2022/06/10 09:55:39;;;;;;;7.03;1.90;;;22.10;67.80;;;;;;5052030;28;20490;-52
2022/06/10 09:58:45;;;;;;;4.80;1.73;;;22.10;68.00;;;;;;5052278;28;20437;-52
2022/06/10 10:01:26;;;;;;;3.63;1.47;;;22.40;67.30;;;;;;4990133;28;20510;-51
2022/06/10 10:04:18;;;;;;;8.30;1.77;;;22.30;65.90;;;;;;5047558;28;20468;-51
2022/06/10 10:06:52;;;;;;;4.93;1.80;;;22.10;67.60;;;;;;5051905;28;20857;-51
2022/06/10 10:09:26;;;;;;;5.17;1.60;;;22.30;68.60;;;;;;5051659;28;20445;-51
2022/06/10 10:12:04;;;;;;;4.13;1.67;;;21.90;68.70;;;;;;5052255;28;20446;-52
2022/06/10 10:14:37;;;;;;;6.07;1.80;;;22.30;69.30;;;;;;5051777;28;20466;-51
2022/06/10 10:17:27;;;;;;;3.50;1.70;;;22.40;68.70;;;;;;5052207;28;20560;-52
2022/06/10 10:20:03;;;;;;;4.03;1.57;;;22.40;67.80;;;;;;5051163;28;20443;-52
2022/06/10 10:22:46;;;;;;;5.03;1.33;;;22.60;67.90;;;;;;5051228;28;20436;-52
2022/06/10 10:25:16;;;;;;;6.40;1.80;;;22.60;66.90;;;;;;5051890;28;20942;-52
2022/06/10 10:27:45;;;;;;;5.57;1.60;;;22.70;68.20;;;;;;5051912;28;20433;-51
2022/06/10 10:30:18;;;;;;;5.70;2.10;;;22.50;68.40;;;;;;5051354;28;20434;-52
2022/06/10 10:32:51;;;;;;;4.90;1.70;;;22.50;68.70;;;;;;5051080;28;20434;-52
2022/06/10 10:35:21;;;;;;;7.03;2.03;;;22.30;68.30;;;;;;5051235;28;20500;-52
2022/06/10 10:37:54;;;;;;;8.53;1.90;;;22.60;69.00;;;;;;5051473;28;20957;-51
2022/06/10 10:40:23;;;;;;;6.17;1.50;;;22.60;67.90;;;;;;5050865;28;20437;-52
2022/06/10 10:42:52;;;;;;;3.40;1.57;;;22.50;67.50;;;;;;5051378;28;20432;-51
2022/06/10 10:45:23;;;;;;;5.53;1.53;;;22.20;65.30;;;;;;5051264;28;20962;-52
2022/06/10 10:47:56;;;;;;;5.93;1.73;;;22.60;64.60;;;;;;5050870;28;20449;-52
2022/06/10 10:50:28;;;;;;;4.63;1.73;;;22.50;64.20;;;;;;5050780;28;20788;-51
2022/06/10 10:52:55;;;;;;;5.70;1.60;;;22.50;64.70;;;;;;5051270;28;20529;-51
2022/06/10 10:55:28;;;;;;;5.73;2.23;;;23.00;65.50;;;;;;5032927;28;20465;-52
2022/06/10 10:58:06;;;;;;;7.73;1.60;;;22.70;65.00;;;;;;5050667;28;20880;-52
2022/06/10 11:00:37;;;;;;;4.40;2.20;;;22.50;64.40;;;;;;5049337;28;20474;-52
2022/06/10 11:03:06;;;;;;;3.73;1.43;;;22.60;64.00;;;;;;5049533;28;20506;-52
2022/06/10 11:05:36;;;;;;;5.47;1.43;;;22.80;62.30;;;;;;5051273;28;20966;-51
2022/06/10 11:08:17;;;;;;;6.30;1.57;;;22.30;61.90;;;;;;5050684;28;20449;-51
2022/06/10 11:10:59;;;;;;;4.20;1.80;;;22.90;61.60;;;;;;5050659;28;20438;-51
2022/06/10 11:13:35;;;;;;;8.90;1.63;;;22.80;62.00;;;;;;5050934;28;20440;-51
2022/06/10 11:16:32;;;;;;;4.10;1.40;;;23.00;62.20;;;;;;5050904;28;20515;-51
2022/06/10 11:19:07;;;;;;;4.93;2.73;;;22.90;60.00;;;;;;5050521;28;20431;-52
2022/06/10 11:21:47;;;;;;;3.83;1.83;;;22.90;60.50;;;;;;5050655;28;20454;-53
2022/06/10 11:24:17;;;;;;;4.53;1.53;;;22.90;60.20;;;;;;5050970;28;20427;-53
2022/06/10 11:26:49;;;;;;;3.17;1.60;;;22.90;60.60;;;;;;5050627;28;20941;-53
2022/06/10 11:29:16;;;;;;;5.87;2.33;;;22.90;60.90;;;;;;5032158;28;20464;-53
2022/06/10 11:31:47;;;;;;;5.53;2.20;;;23.00;61.10;;;;;;5050618;28;20440;-52
2022/06/10 11:34:20;;;;;;;12.60;3.00;;;23.20;60.80;;;;;;5051572;28;20434;-53
2022/06/10 11:36:49;;;;;;;6.37;2.20;;;22.80;60.30;;;;;;5036704;28;20478;-52
2022/06/10 11:39:19;;;;;;;4.13;1.60;;;22.80;60.30;;;;;;5053664;28;20431;-51
2022/06/10 11:41:59;;;;;;;7.57;1.70;;;23.10;60.20;;;;;;5054409;28;20442;-51
2022/06/10 11:44:29;;;;;;;4.07;1.60;;;22.80;60.30;;;;;;5053804;28;20454;-51
2022/06/10 11:47:03;;;;;;;4.47;1.70;;;23.10;61.00;;;;;;5054310;28;20968;-52
2022/06/10 11:49:35;;;;;;;7.37;2.03;;;22.80;60.00;;;;;;5053837;28;20433;-52
2022/06/10 11:52:11;;;;;;;5.23;1.80;;;22.80;59.40;;;;;;5053709;28;20781;-50
2022/06/10 11:54:43;;;;;;;4.07;1.63;;;22.80;59.30;;;;;;5035328;28;20483;-52
2022/06/10 12:00:06;;;;;;;2.83;1.20;;;22.60;58.90;;;;;;5022306;28;20509;-52
2022/06/10 12:02:36;;;;;;;6.10;1.83;;;22.80;59.30;;;;;;5054119;28;20882;-52
2022/06/10 12:05:17;;;;;;;5.33;1.43;;;22.60;59.30;;;;;;5054381;28;20493;-53
2022/06/10 12:07:51;;;;;;;8.80;1.83;;;22.90;59.40;;;;;;5053819;28;20505;-51
2022/06/10 12:10:24;;;;;;;5.03;1.70;;;22.90;58.40;;;;;;5053840;28;20470;-51
2022/06/10 12:12:53;;;;;;;3.90;1.80;;;22.90;56.90;;;;;;5053943;28;20427;-52
2022/06/10 12:15:25;;;;;;;3.47;1.40;;;22.80;57.20;;;;;;5053881;28;20840;-52
2022/06/10 12:17:55;;;;;;;7.00;1.70;;;23.00;56.80;;;;;;5036390;28;20458;-52
2022/06/10 12:20:31;;;;;;;4.13;1.80;;;22.90;57.00;;;;;;5053089;28;20441;-53
2022/06/10 12:23:00;;;;;;;6.60;2.33;;;23.00;57.20;;;;;;5053936;28;20955;-52
2022/06/10 12:25:37;;;;;;;5.43;1.80;;;23.00;57.50;;;;;;5059718;28;20459;-51
2022/06/10 12:28:09;;;;;;;4.03;1.40;;;22.80;57.00;;;;;;5053631;28;20433;-52
2022/06/10 12:30:41;;;;;;;7.97;4.60;;;23.10;56.70;;;;;;5053363;28;20493;-52
2022/06/10 12:33:15;;;;;;;5.93;1.80;;;23.10;56.90;;;;;;5053582;28;20431;-52
2022/06/10 12:35:45;;;;;;;5.67;1.63;;;22.90;56.70;;;;;;5076799;22;20492;-44
2022/06/10 12:38:16;;;;;;;5.03;1.73;;;23.20;57.10;;;;;;5053549;28;20435;-46
2022/06/10 12:40:47;;;;;;;7.47;2.10;;;23.30;57.50;;;;;;5052971;28;20434;-46
2022/06/10 12:43:19;;;;;;;3.33;1.23;;;23.30;57.80;;;;;;5053270;28;20430;-47
2022/06/10 12:45:48;;;;;;;4.60;1.40;;;23.30;57.60;;;;;;5052878;28;21007;-45
2022/06/10 12:48:17;;;;;;;4.10;1.70;;;23.30;56.80;;;;;;5053007;28;20469;-48
2022/06/10 12:50:53;;;;;;;5.63;1.80;;;23.30;56.70;;;;;;5052818;28;20944;-45
2022/06/10 12:53:33;;;;;;;5.80;1.40;;;23.40;57.00;;;;;;5052992;28;20433;-46
2022/06/10 12:56:02;;;;;;;7.03;1.80;;;23.40;56.60;;;;;;5052805;28;20480;-47
2022/06/10 12:58:46;;;;;;;2.70;1.10;;;23.30;56.70;;;;;;5052914;28;20448;-47
2022/06/10 13:01:23;;;;;;;7.60;4.13;;;23.60;55.90;;;;;;5052996;28;20457;-50
2022/06/10 13:03:52;;;;;;;5.00;1.63;;;23.60;55.50;;;;;;5034297;28;20547;-46
2022/06/10 13:06:33;;;;;;;3.23;1.60;;;23.60;55.50;;;;;;5052018;28;21008;-47
2022/06/10 13:09:22;;;;;;;2.40;1.00;;;23.60;55.00;;;;;;5051989;28;20532;-46
2022/06/10 13:11:50;;;;;;;3.43;1.23;;;23.50;54.60;;;;;;5052488;28;20444;-47
2022/06/10 13:14:24;;;;;;;4.10;1.03;;;23.20;54.80;;;;;;5052881;28;20748;-46
2022/06/10 13:17:21;;;;;;;5.43;1.63;;;23.40;53.90;;;;;;5052223;28;20879;-46
2022/06/10 13:20:10;;;;;;;3.03;1.37;;;23.50;53.90;;;;;;5051690;28;20537;-45
2022/06/10 13:22:39;;;;;;;4.10;1.90;;;23.60;51.90;;;;;;5042690;28;20447;-48